sensor_id;sensor_type;location;lat;lon;timestamp;temperature;humidity
9466;DHT22;4771;48.726;9.006;2022-10-16T00:00:47;15.30;99.90
9466;DHT22;4771;48.726;9.006;2022-10-16T00:03:14;15.40;99.90
9466;DHT22;4771;48.726;9.006;2022-10-16T00:05:43;15.30;99.90
9466;DHT22;4771;48.726;9.006;2022-10-16T00:08:11;15.20;99.90
9466;DHT22;4771;48.726;9.006;2022-10-16T00:10:40;15.20;99.90
9466;DHT22;4771;48.726;9.006;2022-10-16T00:13:07;15.20;99.90
9466;DHT22;4771;48.726;9.006;2022-10-16T00:15:36;15.20;99.90
9466;DHT22;4771;48.726;9.006;2022-10-16T00:18:05;15.20;99.90
9466;DHT22;4771;48.726;9.006;2022-10-16T00:20:34;15.10;99.90
9466;DHT22;4771;48.726;9.006;2022-10-16T00:23:02;15.00;99.90
9466;DHT22;4771;48.726;9.006;2022-10-16T00:25:29;15.00;99.90
9466;DHT22;4771;48.726;9.006;2022-10-16T00:28:00;15.00;99.90
9466;DHT22;4771;48.726;9.006;2022-10-16T00:30:27;14.90;99.90
9466;DHT22;4771;48.726;9.006;2022-10-16T00:32:54;14.90;99.90
9466;DHT22;4771;48.726;9.006;2022-10-16T00:35:21;14.80;99.90
9466;DHT22;4771;48.726;9.006;2022-10-16T00:37:48;14.80;99.90
9466;DHT22;4771;48.726;9.006;2022-10-16T00:40:15;14.70;99.90
9466;DHT22;4771;48.726;9.006;2022-10-16T00:42:42;14.70;99.90
9466;DHT22;4771;48.726;9.006;2022-10-16T00:45:11;14.60;99.90
9466;DHT22;4771;48.726;9.006;2022-10-16T00:47:39;14.60;99.90
9466;DHT22;4771;48.726;9.006;2022-10-16T00:50:10;14.60;99.90
9466;DHT22;4771;48.726;9.006;2022-10-16T00:52:40;14.70;99.90
9466;DHT22;4771;48.726;9.006;2022-10-16T00:55:08;14.70;99.90
9466;DHT22;4771;48.726;9.006;2022-10-16T00:57:36;14.70;99.90
9466;DHT22;4771;48.726;9.006;2022-10-16T01:00:06;14.70;99.90
9466;DHT22;4771;48.726;9.006;2022-10-16T01:02:35;14.70;99.90
9466;DHT22;4771;48.726;9.006;2022-10-16T01:05:03;14.70;99.90
9466;DHT22;4771;48.726;9.006;2022-10-16T01:07:37;14.70;99.90
9466;DHT22;4771;48.726;9.006;2022-10-16T01:10:12;14.70;99.90
9466;DHT22;4771;48.726;9.006;2022-10-16T01:12:42;14.80;99.90
9466;DHT22;4771;48.726;9.006;2022-10-16T01:15:16;14.70;99.90
9466;DHT22;4771;48.726;9.006;2022-10-16T01:17:51;14.80;99.90
9466;DHT22;4771;48.726;9.006;2022-10-16T01:20:26;14.80;99.90
9466;DHT22;4771;48.726;9.006;2022-10-16T01:23:05;14.80;99.90
9466;DHT22;4771;48.726;9.006;2022-10-16T01:25:45;14.80;99.90
9466;DHT22;4771;48.726;9.006;2022-10-16T01:28:19;14.70;99.90
9466;DHT22;4771;48.726;9.006;2022-10-16T01:30:50;14.70;99.90
9466;DHT22;4771;48.726;9.006;2022-10-16T01:33:22;14.70;99.90
9466;DHT22;4771;48.726;9.006;2022-10-16T01:35:54;14.70;99.90
9466;DHT22;4771;48.726;9.006;2022-10-16T01:38:26;14.70;99.90
9466;DHT22;4771;48.726;9.006;2022-10-16T01:41:00;14.70;99.90
9466;DHT22;4771;48.726;9.006;2022-10-16T01:43:33;14.70;99.90
9466;DHT22;4771;48.726;9.006;2022-10-16T01:46:02;14.70;99.90
9466;DHT22;4771;48.726;9.006;2022-10-16T01:48:29;14.70;99.90
9466;DHT22;4771;48.726;9.006;2022-10-16T01:51:03;14.70;99.90
9466;DHT22;4771;48.726;9.006;2022-10-16T01:53:32;14.70;99.90
9466;DHT22;4771;48.726;9.006;2022-10-16T01:56:00;14.80;99.90
9466;DHT22;4771;48.726;9.006;2022-10-16T01:58:30;14.80;99.90
9466;DHT22;4771;48.726;9.006;2022-10-16T02:01:00;14.70;99.90
9466;DHT22;4771;48.726;9.006;2022-10-16T02:03:28;14.80;99.90
9466;DHT22;4771;48.726;9.006;2022-10-16T02:05:56;14.80;99.90
9466;DHT22;4771;48.726;9.006;2022-10-16T02:08:25;14.80;99.90
9466;DHT22;4771;48.726;9.006;2022-10-16T02:10:54;14.80;99.90
9466;DHT22;4771;48.726;9.006;2022-10-16T02:13:25;14.80;99.90
9466;DHT22;4771;48.726;9.006;2022-10-16T02:15:54;14.90;99.90
9466;DHT22;4771;48.726;9.006;2022-10-16T02:18:21;14.90;99.90
9466;DHT22;4771;48.726;9.006;2022-10-16T02:20:52;14.90;99.90
9466;DHT22;4771;48.726;9.006;2022-10-16T02:23:24;15.00;99.90
9466;DHT22;4771;48.726;9.006;2022-10-16T02:25:55;15.00;99.90
9466;DHT22;4771;48.726;9.006;2022-10-16T02:28:28;15.00;99.90
9466;DHT22;4771;48.726;9.006;2022-10-16T02:31:02;15.00;99.90
9466;DHT22;4771;48.726;9.006;2022-10-16T02:33:31;15.00;99.90
9466;DHT22;4771;48.726;9.006;2022-10-16T02:35:59;15.00;99.90
9466;DHT22;4771;48.726;9.006;2022-10-16T02:38:27;15.00;99.90
9466;DHT22;4771;48.726;9.006;2022-10-16T02:40:56;15.00;99.90
9466;DHT22;4771;48.726;9.006;2022-10-16T02:43:24;14.90;99.90
9466;DHT22;4771;48.726;9.006;2022-10-16T02:45:51;14.90;99.90
9466;DHT22;4771;48.726;9.006;2022-10-16T02:48:20;14.90;99.90
9466;DHT22;4771;48.726;9.006;2022-10-16T02:50:46;14.90;99.90
9466;DHT22;4771;48.726;9.006;2022-10-16T02:53:13;15.00;99.90
9466;DHT22;4771;48.726;9.006;2022-10-16T02:55:40;15.00;99.90
9466;DHT22;4771;48.726;9.006;2022-10-16T02:58:07;14.90;99.90
9466;DHT22;4771;48.726;9.006;2022-10-16T03:00:34;14.90;99.90
9466;DHT22;4771;48.726;9.006;2022-10-16T03:03:01;14.90;99.90
9466;DHT22;4771;48.726;9.006;2022-10-16T03:05:29;15.00;99.90
9466;DHT22;4771;48.726;9.006;2022-10-16T03:07:56;14.90;99.90
9466;DHT22;4771;48.726;9.006;2022-10-16T03:10:25;14.90;99.90
9466;DHT22;4771;48.726;9.006;2022-10-16T03:12:52;14.90;99.90
9466;DHT22;4771;48.726;9.006;2022-10-16T03:15:19;14.90;99.90
9466;DHT22;4771;48.726;9.006;2022-10-16T03:17:46;14.80;99.90
9466;DHT22;4771;48.726;9.006;2022-10-16T03:20:13;14.90;99.90
9466;DHT22;4771;48.726;9.006;2022-10-16T03:22:42;14.80;99.90
9466;DHT22;4771;48.726;9.006;2022-10-16T03:25:09;14.80;99.90
9466;DHT22;4771;48.726;9.006;2022-10-16T03:27:36;14.80;99.90
9466;DHT22;4771;48.726;9.006;2022-10-16T03:30:04;14.80;99.90
9466;DHT22;4771;48.726;9.006;2022-10-16T03:32:31;14.80;99.90
9466;DHT22;4771;48.726;9.006;2022-10-16T03:34:58;14.80;99.90
9466;DHT22;4771;48.726;9.006;2022-10-16T03:37:26;14.80;99.90
9466;DHT22;4771;48.726;9.006;2022-10-16T03:39:54;14.80;99.90
9466;DHT22;4771;48.726;9.006;2022-10-16T03:42:21;14.80;99.90
9466;DHT22;4771;48.726;9.006;2022-10-16T03:44:50;14.80;99.90
9466;DHT22;4771;48.726;9.006;2022-10-16T03:47:17;14.80;99.90
9466;DHT22;4771;48.726;9.006;2022-10-16T03:49:47;14.90;99.90
9466;DHT22;4771;48.726;9.006;2022-10-16T03:52:14;14.80;99.90
9466;DHT22;4771;48.726;9.006;2022-10-16T03:54:41;14.80;99.90
9466;DHT22;4771;48.726;9.006;2022-10-16T03:57:10;14.80;99.90
9466;DHT22;4771;48.726;9.006;2022-10-16T03:59:37;14.80;99.90
9466;DHT22;4771;48.726;9.006;2022-10-16T04:02:04;14.80;99.90
9466;DHT22;4771;48.726;9.006;2022-10-16T04:04:31;14.80;99.90
9466;DHT22;4771;48.726;9.006;2022-10-16T04:06:59;14.80;99.90
9466;DHT22;4771;48.726;9.006;2022-10-16T04:09:26;14.80;99.90
9466;DHT22;4771;48.726;9.006;2022-10-16T04:11:53;14.80;99.90
9466;DHT22;4771;48.726;9.006;2022-10-16T04:14:22;14.80;99.90
9466;DHT22;4771;48.726;9.006;2022-10-16T04:16:49;14.90;99.90
9466;DHT22;4771;48.726;9.006;2022-10-16T04:19:16;14.80;99.90
9466;DHT22;4771;48.726;9.006;2022-10-16T04:21:44;14.80;99.90
9466;DHT22;4771;48.726;9.006;2022-10-16T04:24:11;14.80;99.90
9466;DHT22;4771;48.726;9.006;2022-10-16T04:26:38;14.80;99.90
9466;DHT22;4771;48.726;9.006;2022-10-16T04:29:13;14.80;99.90
9466;DHT22;4771;48.726;9.006;2022-10-16T04:31:42;14.80;99.90
9466;DHT22;4771;48.726;9.006;2022-10-16T04:34:09;14.80;99.90
9466;DHT22;4771;48.726;9.006;2022-10-16T04:36:36;14.80;99.90
9466;DHT22;4771;48.726;9.006;2022-10-16T04:39:03;14.80;99.90
9466;DHT22;4771;48.726;9.006;2022-10-16T04:41:31;14.80;99.90
9466;DHT22;4771;48.726;9.006;2022-10-16T04:43:58;14.80;99.90
9466;DHT22;4771;48.726;9.006;2022-10-16T04:46:25;14.80;99.90
9466;DHT22;4771;48.726;9.006;2022-10-16T04:48:53;14.80;99.90
9466;DHT22;4771;48.726;9.006;2022-10-16T04:51:20;14.80;99.90
9466;DHT22;4771;48.726;9.006;2022-10-16T04:53:47;14.80;99.90
9466;DHT22;4771;48.726;9.006;2022-10-16T04:56:14;14.80;99.90
9466;DHT22;4771;48.726;9.006;2022-10-16T04:58:41;14.80;99.90
9466;DHT22;4771;48.726;9.006;2022-10-16T05:01:08;14.80;99.90
9466;DHT22;4771;48.726;9.006;2022-10-16T05:03:35;14.80;99.90
9466;DHT22;4771;48.726;9.006;2022-10-16T05:06:05;14.90;99.90
9466;DHT22;4771;48.726;9.006;2022-10-16T05:08:32;14.90;99.90
9466;DHT22;4771;48.726;9.006;2022-10-16T05:10:59;14.80;99.90
9466;DHT22;4771;48.726;9.006;2022-10-16T05:13:27;14.80;99.90
9466;DHT22;4771;48.726;9.006;2022-10-16T05:15:54;14.80;99.90
9466;DHT22;4771;48.726;9.006;2022-10-16T05:18:21;14.80;99.90
9466;DHT22;4771;48.726;9.006;2022-10-16T05:20:47;14.80;99.90
9466;DHT22;4771;48.726;9.006;2022-10-16T05:23:16;14.90;99.90
9466;DHT22;4771;48.726;9.006;2022-10-16T05:25:43;14.80;99.90
9466;DHT22;4771;48.726;9.006;2022-10-16T05:28:09;14.80;99.90
9466;DHT22;4771;48.726;9.006;2022-10-16T05:30:37;14.70;99.90
9466;DHT22;4771;48.726;9.006;2022-10-16T05:33:04;14.70;99.90
9466;DHT22;4771;48.726;9.006;2022-10-16T05:35:31;14.70;99.90
9466;DHT22;4771;48.726;9.006;2022-10-16T05:37:58;14.60;99.90
9466;DHT22;4771;48.726;9.006;2022-10-16T05:40:26;14.70;99.90
9466;DHT22;4771;48.726;9.006;2022-10-16T05:42:55;14.70;99.90
9466;DHT22;4771;48.726;9.006;2022-10-16T05:45:22;14.60;99.90
9466;DHT22;4771;48.726;9.006;2022-10-16T05:47:49;14.70;99.90
9466;DHT22;4771;48.726;9.006;2022-10-16T05:50:16;14.70;99.90
9466;DHT22;4771;48.726;9.006;2022-10-16T05:52:43;14.70;99.90
9466;DHT22;4771;48.726;9.006;2022-10-16T05:55:10;14.70;99.90
9466;DHT22;4771;48.726;9.006;2022-10-16T05:57:38;14.70;99.90
9466;DHT22;4771;48.726;9.006;2022-10-16T06:00:06;14.70;99.90
9466;DHT22;4771;48.726;9.006;2022-10-16T06:02:33;14.80;99.90
9466;DHT22;4771;48.726;9.006;2022-10-16T06:05:00;14.80;99.90
9466;DHT22;4771;48.726;9.006;2022-10-16T06:07:27;14.90;99.90
9466;DHT22;4771;48.726;9.006;2022-10-16T06:09:54;14.90;99.90
9466;DHT22;4771;48.726;9.006;2022-10-16T06:12:30;14.90;99.90
9466;DHT22;4771;48.726;9.006;2022-10-16T06:14:58;14.90;99.90
9466;DHT22;4771;48.726;9.006;2022-10-16T06:17:25;14.90;99.90
9466;DHT22;4771;48.726;9.006;2022-10-16T06:19:52;14.90;99.90
9466;DHT22;4771;48.726;9.006;2022-10-16T06:22:19;15.00;99.90
9466;DHT22;4771;48.726;9.006;2022-10-16T06:24:46;15.10;99.90
9466;DHT22;4771;48.726;9.006;2022-10-16T06:27:13;15.00;99.90
9466;DHT22;4771;48.726;9.006;2022-10-16T06:29:40;15.10;99.90
9466;DHT22;4771;48.726;9.006;2022-10-16T06:32:12;15.10;99.90
9466;DHT22;4771;48.726;9.006;2022-10-16T06:34:39;15.10;99.90
9466;DHT22;4771;48.726;9.006;2022-10-16T06:37:06;15.20;99.90
9466;DHT22;4771;48.726;9.006;2022-10-16T06:39:33;15.20;99.90
9466;DHT22;4771;48.726;9.006;2022-10-16T06:42:00;15.20;99.90
9466;DHT22;4771;48.726;9.006;2022-10-16T06:44:27;15.30;99.90
9466;DHT22;4771;48.726;9.006;2022-10-16T06:46:54;15.30;99.90
9466;DHT22;4771;48.726;9.006;2022-10-16T06:49:23;15.40;99.90
9466;DHT22;4771;48.726;9.006;2022-10-16T06:51:50;15.50;99.90
9466;DHT22;4771;48.726;9.006;2022-10-16T06:54:17;15.50;99.90
9466;DHT22;4771;48.726;9.006;2022-10-16T06:56:44;15.50;99.90
9466;DHT22;4771;48.726;9.006;2022-10-16T06:59:11;15.60;99.90
9466;DHT22;4771;48.726;9.006;2022-10-16T07:01:38;15.60;99.90
9466;DHT22;4771;48.726;9.006;2022-10-16T07:04:05;15.70;99.90
9466;DHT22;4771;48.726;9.006;2022-10-16T07:06:34;15.80;99.90
9466;DHT22;4771;48.726;9.006;2022-10-16T07:09:04;15.90;99.90
9466;DHT22;4771;48.726;9.006;2022-10-16T07:11:31;15.90;99.90
9466;DHT22;4771;48.726;9.006;2022-10-16T07:13:58;16.00;99.90
9466;DHT22;4771;48.726;9.006;2022-10-16T07:16:27;16.00;99.90
9466;DHT22;4771;48.726;9.006;2022-10-16T07:18:55;16.00;99.90
9466;DHT22;4771;48.726;9.006;2022-10-16T07:21:25;16.00;99.90
9466;DHT22;4771;48.726;9.006;2022-10-16T07:23:55;16.00;99.90
9466;DHT22;4771;48.726;9.006;2022-10-16T07:26:24;16.00;99.90
9466;DHT22;4771;48.726;9.006;2022-10-16T07:28:51;16.00;99.90
9466;DHT22;4771;48.726;9.006;2022-10-16T07:31:20;16.00;99.90
9466;DHT22;4771;48.726;9.006;2022-10-16T07:33:49;16.10;99.90
9466;DHT22;4771;48.726;9.006;2022-10-16T07:36:18;16.10;99.90
9466;DHT22;4771;48.726;9.006;2022-10-16T07:38:45;16.20;99.90
9466;DHT22;4771;48.726;9.006;2022-10-16T07:41:15;16.20;99.90
9466;DHT22;4771;48.726;9.006;2022-10-16T07:43:46;16.20;99.90
9466;DHT22;4771;48.726;9.006;2022-10-16T07:46:13;16.30;99.90
9466;DHT22;4771;48.726;9.006;2022-10-16T07:48:41;16.40;99.90
9466;DHT22;4771;48.726;9.006;2022-10-16T07:51:12;16.40;99.90
9466;DHT22;4771;48.726;9.006;2022-10-16T07:53:39;16.50;99.90
9466;DHT22;4771;48.726;9.006;2022-10-16T07:56:07;16.40;99.90
9466;DHT22;4771;48.726;9.006;2022-10-16T07:58:36;16.50;99.90
9466;DHT22;4771;48.726;9.006;2022-10-16T08:01:04;16.50;99.90
9466;DHT22;4771;48.726;9.006;2022-10-16T08:03:32;16.50;99.90
9466;DHT22;4771;48.726;9.006;2022-10-16T08:05:59;16.60;99.90
9466;DHT22;4771;48.726;9.006;2022-10-16T08:08:27;16.60;99.90
9466;DHT22;4771;48.726;9.006;2022-10-16T08:10:54;16.80;99.90
9466;DHT22;4771;48.726;9.006;2022-10-16T08:13:21;16.90;99.90
9466;DHT22;4771;48.726;9.006;2022-10-16T08:15:49;17.10;99.90
9466;DHT22;4771;48.726;9.006;2022-10-16T08:18:16;17.30;99.90
9466;DHT22;4771;48.726;9.006;2022-10-16T08:20:43;17.30;99.90
9466;DHT22;4771;48.726;9.006;2022-10-16T08:23:11;17.50;99.90
9466;DHT22;4771;48.726;9.006;2022-10-16T08:25:39;17.50;99.90
9466;DHT22;4771;48.726;9.006;2022-10-16T08:28:07;17.70;99.90
9466;DHT22;4771;48.726;9.006;2022-10-16T08:30:34;17.60;99.90
9466;DHT22;4771;48.726;9.006;2022-10-16T08:33:03;17.70;99.90
9466;DHT22;4771;48.726;9.006;2022-10-16T08:35:30;17.90;99.90
9466;DHT22;4771;48.726;9.006;2022-10-16T08:37:57;17.90;99.90
9466;DHT22;4771;48.726;9.006;2022-10-16T08:40:26;17.80;99.90
9466;DHT22;4771;48.726;9.006;2022-10-16T08:43:06;17.70;99.90
9466;DHT22;4771;48.726;9.006;2022-10-16T08:45:45;17.70;99.90
9466;DHT22;4771;48.726;9.006;2022-10-16T08:48:21;17.70;99.90
9466;DHT22;4771;48.726;9.006;2022-10-16T08:50:53;17.60;99.90
9466;DHT22;4771;48.726;9.006;2022-10-16T08:53:24;17.70;99.90
9466;DHT22;4771;48.726;9.006;2022-10-16T08:55:53;17.80;99.90
9466;DHT22;4771;48.726;9.006;2022-10-16T08:58:22;17.90;99.90
9466;DHT22;4771;48.726;9.006;2022-10-16T09:00:53;18.00;99.90
9466;DHT22;4771;48.726;9.006;2022-10-16T09:03:42;18.30;99.90
9466;DHT22;4771;48.726;9.006;2022-10-16T09:06:27;18.50;99.90
9466;DHT22;4771;48.726;9.006;2022-10-16T09:09:11;18.80;99.90
9466;DHT22;4771;48.726;9.006;2022-10-16T09:11:46;19.20;99.90
9466;DHT22;4771;48.726;9.006;2022-10-16T09:14:39;19.50;99.90
9466;DHT22;4771;48.726;9.006;2022-10-16T09:17:22;19.70;99.90
9466;DHT22;4771;48.726;9.006;2022-10-16T09:19:55;20.50;99.90
9466;DHT22;4771;48.726;9.006;2022-10-16T09:22:27;20.80;99.90
9466;DHT22;4771;48.726;9.006;2022-10-16T09:25:11;21.40;99.90
9466;DHT22;4771;48.726;9.006;2022-10-16T09:27:39;21.60;99.90
9466;DHT22;4771;48.726;9.006;2022-10-16T09:30:12;22.50;99.90
9466;DHT22;4771;48.726;9.006;2022-10-16T09:32:40;22.60;99.90
9466;DHT22;4771;48.726;9.006;2022-10-16T09:35:15;22.10;99.90
9466;DHT22;4771;48.726;9.006;2022-10-16T09:37:45;21.50;99.90
9466;DHT22;4771;48.726;9.006;2022-10-16T09:40:23;21.30;99.90
9466;DHT22;4771;48.726;9.006;2022-10-16T09:43:01;21.30;99.90
9466;DHT22;4771;48.726;9.006;2022-10-16T09:45:28;21.30;99.90
9466;DHT22;4771;48.726;9.006;2022-10-16T09:47:55;21.50;99.90
9466;DHT22;4771;48.726;9.006;2022-10-16T09:50:26;21.60;99.90
9466;DHT22;4771;48.726;9.006;2022-10-16T09:53:04;21.70;99.90
9466;DHT22;4771;48.726;9.006;2022-10-16T09:55:31;22.00;99.90
9466;DHT22;4771;48.726;9.006;2022-10-16T09:57:58;22.40;99.90
9466;DHT22;4771;48.726;9.006;2022-10-16T10:00:25;23.10;99.90
9466;DHT22;4771;48.726;9.006;2022-10-16T10:02:54;23.00;99.90
9466;DHT22;4771;48.726;9.006;2022-10-16T10:05:24;23.00;99.90
9466;DHT22;4771;48.726;9.006;2022-10-16T10:07:56;23.60;99.90
9466;DHT22;4771;48.726;9.006;2022-10-16T10:10:26;24.10;99.90
9466;DHT22;4771;48.726;9.006;2022-10-16T10:12:54;24.30;99.90
9466;DHT22;4771;48.726;9.006;2022-10-16T10:15:34;24.50;99.90
9466;DHT22;4771;48.726;9.006;2022-10-16T10:18:14;24.80;99.90
9466;DHT22;4771;48.726;9.006;2022-10-16T10:20:44;24.70;99.90
9466;DHT22;4771;48.726;9.006;2022-10-16T10:23:21;24.80;99.90
9466;DHT22;4771;48.726;9.006;2022-10-16T10:25:54;24.80;99.90
9466;DHT22;4771;48.726;9.006;2022-10-16T10:31:26;23.90;99.90
9466;DHT22;4771;48.726;9.006;2022-10-16T10:33:59;23.80;99.90
9466;DHT22;4771;48.726;9.006;2022-10-16T10:36:34;24.10;99.90
9466;DHT22;4771;48.726;9.006;2022-10-16T10:39:05;24.30;99.90
9466;DHT22;4771;48.726;9.006;2022-10-16T10:41:59;24.40;99.90
9466;DHT22;4771;48.726;9.006;2022-10-16T10:44:42;26.20;99.90
9466;DHT22;4771;48.726;9.006;2022-10-16T10:47:19;30.10;87.60
9466;DHT22;4771;48.726;9.006;2022-10-16T10:49:57;34.10;58.00
9466;DHT22;4771;48.726;9.006;2022-10-16T10:52:48;36.90;38.70
9466;DHT22;4771;48.726;9.006;2022-10-16T10:55:24;37.90;31.20
9466;DHT22;4771;48.726;9.006;2022-10-16T10:58:14;37.50;29.10
9466;DHT22;4771;48.726;9.006;2022-10-16T11:00:50;36.20;28.80
9466;DHT22;4771;48.726;9.006;2022-10-16T11:03:35;34.10;30.40
9466;DHT22;4771;48.726;9.006;2022-10-16T11:06:12;32.60;32.40
9466;DHT22;4771;48.726;9.006;2022-10-16T11:08:46;31.80;34.00
9466;DHT22;4771;48.726;9.006;2022-10-16T11:11:18;30.90;35.90
9466;DHT22;4771;48.726;9.006;2022-10-16T11:13:53;29.70;39.60
9466;DHT22;4771;48.726;9.006;2022-10-16T11:16:27;28.80;42.00
9466;DHT22;4771;48.726;9.006;2022-10-16T11:18:59;28.20;46.60
9466;DHT22;4771;48.726;9.006;2022-10-16T11:21:33;28.00;50.50
9466;DHT22;4771;48.726;9.006;2022-10-16T11:24:08;27.90;51.70
9466;DHT22;4771;48.726;9.006;2022-10-16T11:26:40;27.90;54.00
9466;DHT22;4771;48.726;9.006;2022-10-16T11:29:13;28.30;55.60
9466;DHT22;4771;48.726;9.006;2022-10-16T11:31:46;29.50;54.20
9466;DHT22;4771;48.726;9.006;2022-10-16T11:34:22;30.30;47.80
9466;DHT22;4771;48.726;9.006;2022-10-16T11:36:53;30.70;46.80
9466;DHT22;4771;48.726;9.006;2022-10-16T11:39:25;33.00;42.90
9466;DHT22;4771;48.726;9.006;2022-10-16T11:41:55;36.40;35.30
9466;DHT22;4771;48.726;9.006;2022-10-16T11:44:44;39.10;28.20
9466;DHT22;4771;48.726;9.006;2022-10-16T11:47:23;42.10;24.50
9466;DHT22;4771;48.726;9.006;2022-10-16T11:49:53;44.00;19.90
9466;DHT22;4771;48.726;9.006;2022-10-16T11:52:25;43.60;19.10
9466;DHT22;4771;48.726;9.006;2022-10-16T11:55:02;44.40;18.30
9466;DHT22;4771;48.726;9.006;2022-10-16T11:57:33;44.30;16.70
9466;DHT22;4771;48.726;9.006;2022-10-16T12:00:08;43.40;17.10
9466;DHT22;4771;48.726;9.006;2022-10-16T12:02:48;42.50;17.70
9466;DHT22;4771;48.726;9.006;2022-10-16T12:05:24;41.10;15.70
9466;DHT22;4771;48.726;9.006;2022-10-16T12:08:04;42.00;17.00
9466;DHT22;4771;48.726;9.006;2022-10-16T12:10:34;39.50;15.70
9466;DHT22;4771;48.726;9.006;2022-10-16T12:13:03;38.20;18.70
9466;DHT22;4771;48.726;9.006;2022-10-16T12:15:33;35.90;19.30
9466;DHT22;4771;48.726;9.006;2022-10-16T12:18:01;34.20;21.20
9466;DHT22;4771;48.726;9.006;2022-10-16T12:20:29;32.60;21.70
9466;DHT22;4771;48.726;9.006;2022-10-16T12:22:59;31.90;24.10
9466;DHT22;4771;48.726;9.006;2022-10-16T12:25:29;31.20;25.20
9466;DHT22;4771;48.726;9.006;2022-10-16T12:28:06;29.90;25.10
9466;DHT22;4771;48.726;9.006;2022-10-16T12:30:35;29.40;28.10
9466;DHT22;4771;48.726;9.006;2022-10-16T12:33:04;28.40;28.90
9466;DHT22;4771;48.726;9.006;2022-10-16T12:35:33;28.10;30.80
9466;DHT22;4771;48.726;9.006;2022-10-16T12:38:12;27.30;31.90
9466;DHT22;4771;48.726;9.006;2022-10-16T12:40:43;25.90;32.70
9466;DHT22;4771;48.726;9.006;2022-10-16T12:43:25;24.80;38.20
9466;DHT22;4771;48.726;9.006;2022-10-16T12:46:00;24.60;42.90
9466;DHT22;4771;48.726;9.006;2022-10-16T12:48:27;24.20;46.40
9466;DHT22;4771;48.726;9.006;2022-10-16T12:50:55;23.60;50.00
9466;DHT22;4771;48.726;9.006;2022-10-16T12:53:24;23.40;52.40
9466;DHT22;4771;48.726;9.006;2022-10-16T12:55:59;23.40;61.40
9466;DHT22;4771;48.726;9.006;2022-10-16T12:58:40;23.50;70.10
9466;DHT22;4771;48.726;9.006;2022-10-16T13:01:21;23.40;70.00
9466;DHT22;4771;48.726;9.006;2022-10-16T13:04:14;23.30;70.90
9466;DHT22;4771;48.726;9.006;2022-10-16T13:06:51;23.50;73.70
9466;DHT22;4771;48.726;9.006;2022-10-16T13:09:33;23.80;81.40
9466;DHT22;4771;48.726;9.006;2022-10-16T13:12:17;24.30;81.10
9466;DHT22;4771;48.726;9.006;2022-10-16T13:15:15;24.60;80.20
9466;DHT22;4771;48.726;9.006;2022-10-16T13:17:49;24.70;85.60
9466;DHT22;4771;48.726;9.006;2022-10-16T13:20:22;24.60;79.60
9466;DHT22;4771;48.726;9.006;2022-10-16T13:22:57;24.90;80.90
9466;DHT22;4771;48.726;9.006;2022-10-16T13:25:34;25.00;86.20
9466;DHT22;4771;48.726;9.006;2022-10-16T13:28:06;25.00;80.10
9466;DHT22;4771;48.726;9.006;2022-10-16T13:30:39;25.00;82.60
9466;DHT22;4771;48.726;9.006;2022-10-16T13:33:12;24.70;80.30
9466;DHT22;4771;48.726;9.006;2022-10-16T13:35:48;24.70;76.00
9466;DHT22;4771;48.726;9.006;2022-10-16T13:38:17;25.10;80.20
9466;DHT22;4771;48.726;9.006;2022-10-16T13:40:53;25.40;79.20
9466;DHT22;4771;48.726;9.006;2022-10-16T13:43:22;25.70;76.80
9466;DHT22;4771;48.726;9.006;2022-10-16T13:45:55;25.80;74.10
9466;DHT22;4771;48.726;9.006;2022-10-16T13:48:23;25.80;71.90
9466;DHT22;4771;48.726;9.006;2022-10-16T13:51:03;25.60;69.80
9466;DHT22;4771;48.726;9.006;2022-10-16T13:53:32;25.50;73.00
9466;DHT22;4771;48.726;9.006;2022-10-16T13:55:59;25.70;75.60
9466;DHT22;4771;48.726;9.006;2022-10-16T13:58:26;25.70;83.00
9466;DHT22;4771;48.726;9.006;2022-10-16T14:00:56;25.60;81.60
9466;DHT22;4771;48.726;9.006;2022-10-16T14:03:25;25.40;85.80
9466;DHT22;4771;48.726;9.006;2022-10-16T14:05:54;25.30;81.90
9466;DHT22;4771;48.726;9.006;2022-10-16T14:08:22;25.00;90.40
9466;DHT22;4771;48.726;9.006;2022-10-16T14:10:51;24.70;83.30
9466;DHT22;4771;48.726;9.006;2022-10-16T14:13:22;24.60;89.40
9466;DHT22;4771;48.726;9.006;2022-10-16T14:15:51;24.40;90.90
9466;DHT22;4771;48.726;9.006;2022-10-16T14:18:23;24.50;91.30
9466;DHT22;4771;48.726;9.006;2022-10-16T14:20:51;24.40;92.70
9466;DHT22;4771;48.726;9.006;2022-10-16T14:23:21;24.30;93.60
9466;DHT22;4771;48.726;9.006;2022-10-16T14:25:49;24.40;95.10
9466;DHT22;4771;48.726;9.006;2022-10-16T14:28:18;24.50;98.60
9466;DHT22;4771;48.726;9.006;2022-10-16T14:30:52;24.40;99.40
9466;DHT22;4771;48.726;9.006;2022-10-16T14:33:31;24.40;99.90
9466;DHT22;4771;48.726;9.006;2022-10-16T14:36:02;24.30;99.00
9466;DHT22;4771;48.726;9.006;2022-10-16T14:38:30;24.20;98.60
9466;DHT22;4771;48.726;9.006;2022-10-16T14:40:58;24.20;99.90
9466;DHT22;4771;48.726;9.006;2022-10-16T14:43:31;24.30;99.90
9466;DHT22;4771;48.726;9.006;2022-10-16T14:45:59;24.20;99.90
9466;DHT22;4771;48.726;9.006;2022-10-16T14:48:29;24.20;99.90
9466;DHT22;4771;48.726;9.006;2022-10-16T14:50:56;23.90;99.50
9466;DHT22;4771;48.726;9.006;2022-10-16T14:53:23;23.80;99.90
9466;DHT22;4771;48.726;9.006;2022-10-16T14:55:50;23.90;99.90
9466;DHT22;4771;48.726;9.006;2022-10-16T14:58:19;24.00;99.90
9466;DHT22;4771;48.726;9.006;2022-10-16T15:00:47;24.00;99.90
9466;DHT22;4771;48.726;9.006;2022-10-16T15:03:14;23.90;99.90
9466;DHT22;4771;48.726;9.006;2022-10-16T15:05:42;23.70;98.80
9466;DHT22;4771;48.726;9.006;2022-10-16T15:08:09;23.50;98.50
9466;DHT22;4771;48.726;9.006;2022-10-16T15:10:40;23.40;99.40
9466;DHT22;4771;48.726;9.006;2022-10-16T15:13:11;23.20;99.20
9466;DHT22;4771;48.726;9.006;2022-10-16T15:15:42;23.00;99.60
9466;DHT22;4771;48.726;9.006;2022-10-16T15:18:10;22.80;99.90
9466;DHT22;4771;48.726;9.006;2022-10-16T15:20:38;22.70;99.90
9466;DHT22;4771;48.726;9.006;2022-10-16T15:23:14;22.60;99.90
9466;DHT22;4771;48.726;9.006;2022-10-16T15:25:43;22.40;99.90
9466;DHT22;4771;48.726;9.006;2022-10-16T15:28:11;22.40;99.90
9466;DHT22;4771;48.726;9.006;2022-10-16T15:30:39;22.30;99.90
9466;DHT22;4771;48.726;9.006;2022-10-16T15:33:12;22.20;99.90
9466;DHT22;4771;48.726;9.006;2022-10-16T15:35:40;22.10;99.90
9466;DHT22;4771;48.726;9.006;2022-10-16T15:38:09;22.10;99.90
9466;DHT22;4771;48.726;9.006;2022-10-16T15:40:37;21.90;99.90
9466;DHT22;4771;48.726;9.006;2022-10-16T15:43:04;21.70;99.90
9466;DHT22;4771;48.726;9.006;2022-10-16T15:45:31;21.60;99.90
9466;DHT22;4771;48.726;9.006;2022-10-16T15:47:58;21.60;99.90
9466;DHT22;4771;48.726;9.006;2022-10-16T15:50:26;21.50;99.90
9466;DHT22;4771;48.726;9.006;2022-10-16T15:52:53;21.40;99.90
9466;DHT22;4771;48.726;9.006;2022-10-16T15:55:21;21.30;99.90
9466;DHT22;4771;48.726;9.006;2022-10-16T15:57:48;21.10;99.90
9466;DHT22;4771;48.726;9.006;2022-10-16T16:00:18;21.00;99.90
9466;DHT22;4771;48.726;9.006;2022-10-16T16:02:50;20.90;99.90
9466;DHT22;4771;48.726;9.006;2022-10-16T16:05:18;20.70;99.90
9466;DHT22;4771;48.726;9.006;2022-10-16T16:07:45;20.60;99.90
9466;DHT22;4771;48.726;9.006;2022-10-16T16:10:12;20.40;99.90
9466;DHT22;4771;48.726;9.006;2022-10-16T16:12:41;20.30;99.90
9466;DHT22;4771;48.726;9.006;2022-10-16T16:15:09;20.20;99.90
9466;DHT22;4771;48.726;9.006;2022-10-16T16:17:36;20.10;99.90
9466;DHT22;4771;48.726;9.006;2022-10-16T16:20:04;19.90;99.90
9466;DHT22;4771;48.726;9.006;2022-10-16T16:22:31;19.80;99.90
9466;DHT22;4771;48.726;9.006;2022-10-16T16:24:58;19.70;99.90